createdAt,value
2022-10-05T00:08:27.919Z,83.90
2022-10-05T00:12:36.445Z,93.20
2022-10-05T00:17:04.214Z,85.80
2022-10-05T00:33:43.448Z,58.10
2022-10-05T01:16:18.274Z,51.10
2022-10-05T01:20:30.096Z,62.70
2022-10-05T01:24:49.212Z,71.60
2022-10-05T01:29:03.369Z,65.70
2022-10-05T01:33:14.560Z,59.30
2022-10-05T01:37:21.344Z,52.80
2022-10-05T01:41:27.515Z,71.80
2022-10-05T01:45:50.637Z,57.90
2022-10-05T01:50:13.138Z,42.70
2022-10-05T01:54:51.874Z,40.30
2022-10-05T01:58:58.867Z,19.60
2022-10-05T02:03:07.334Z,24.90
2022-10-05T02:07:18.989Z,32.50
2022-10-05T02:11:31.199Z,31.30
2022-10-05T02:51:28.597Z,41.60
2022-10-05T02:55:40.195Z,47.90
2022-10-05T03:00:12.325Z,46.60
2022-10-05T03:04:19.883Z,51.80
2022-10-05T03:08:43.559Z,46.60
2022-10-05T03:13:09.951Z,50.50
2022-10-05T03:17:27.238Z,40.80
2022-10-05T03:21:44.200Z,44.70
2022-10-05T03:26:13.534Z,50.40
2022-10-05T03:30:36.318Z,44.60
2022-10-05T03:34:56.431Z,40.90
2022-10-05T03:39:29.229Z,35.10
2022-10-05T03:43:58.232Z,38.80
2022-10-05T03:48:09.217Z,27.20
2022-10-05T03:52:19.689Z,37.10
2022-10-05T03:56:26.986Z,45.50
2022-10-05T04:00:29.984Z,49.60
2022-10-05T04:04:40.352Z,45.00
2022-10-05T04:08:38.777Z,32.10
2022-10-05T04:13:05.184Z,33.30
2022-10-05T04:25:57.862Z,50.30
2022-10-05T04:30:11.365Z,55.20
2022-10-05T04:38:16.410Z,48.60
2022-10-05T04:42:43.164Z,61.60
2022-10-05T04:47:03.212Z,58.90
2022-10-05T04:51:09.742Z,54.20
2022-10-05T04:55:39.183Z,27.70
2022-10-05T04:59:40.718Z,34.10
2022-10-05T05:04:19.212Z,36.30
2022-10-05T05:08:35.252Z,48.50
2022-10-05T05:12:49.203Z,36.40
2022-10-05T05:17:20.359Z,36.50
2022-10-05T05:21:34.211Z,32.30
2022-10-05T05:25:57.091Z,22.30
2022-10-05T05:30:17.068Z,35.70
2022-10-05T05:34:22.847Z,35.80
2022-10-05T05:38:41.920Z,27.30
2022-10-05T05:42:59.202Z,30.80
2022-10-05T05:47:19.839Z,39.60
2022-10-05T05:51:46.180Z,37.70
2022-10-05T05:56:02.393Z,28.30
2022-10-05T05:59:55.250Z,32.30
2022-10-05T06:03:31.755Z,18.00
2022-10-05T06:07:05.745Z,24.00
2022-10-05T06:11:27.275Z,31.50
2022-10-05T06:15:38.053Z,24.80
2022-10-05T06:18:26.246Z,24.40
2022-10-05T06:21:59.190Z,19.60
2022-10-05T06:25:38.632Z,20.40
2022-10-05T06:29:47.056Z,22.20
2022-10-05T06:33:55.480Z,29.40
2022-10-05T06:37:44.221Z,26.40
2022-10-05T06:41:50.685Z,23.90
2022-10-05T06:46:22.731Z,24.10
2022-10-05T06:50:24.467Z,22.10
2022-10-05T06:54:56.878Z,21.00
2022-10-05T07:12:02.189Z,20.60
2022-10-05T07:16:46.702Z,23.10
2022-10-05T07:21:13.507Z,20.70
2022-10-05T07:25:10.155Z,22.00
2022-10-05T07:29:08.412Z,19.10
2022-10-05T07:33:40.938Z,19.10
2022-10-05T07:37:39.728Z,23.40
2022-10-05T07:41:44.669Z,16.60
2022-10-05T07:45:58.079Z,17.00
2022-10-05T07:49:24.549Z,12.80
2022-10-05T07:52:48.326Z,14.20
2022-10-05T07:56:36.529Z,10.00
2022-10-05T08:00:58.470Z,11.50
2022-10-05T08:04:18.105Z,10.40
2022-10-05T08:08:12.334Z,9.40
2022-10-05T08:12:12.078Z,9.10
2022-10-05T08:15:59.898Z,13.50
2022-10-05T08:19:59.155Z,8.90
2022-10-05T08:23:07.067Z,9.40
2022-10-05T08:27:12.514Z,9.30
2022-10-05T08:34:52.497Z,11.30
2022-10-05T08:43:00.232Z,9.40
2022-10-05T08:46:20.708Z,7.80
2022-10-05T08:49:49.324Z,12.00
2022-10-05T08:53:53.138Z,9.30
2022-10-05T08:58:23.884Z,8.80
2022-10-05T09:02:30.599Z,9.50
2022-10-05T09:06:42.268Z,8.20
2022-10-05T09:10:43.832Z,9.40
2022-10-05T09:15:25.406Z,8.10
2022-10-05T09:19:51.578Z,7.30
2022-10-05T09:24:13.818Z,8.10
2022-10-05T09:28:19.534Z,6.80
2022-10-05T09:32:45.615Z,7.30
2022-10-05T09:36:34.992Z,6.30
2022-10-05T09:40:21.709Z,7.80
2022-10-05T09:44:17.127Z,6.30
2022-10-05T09:48:12.546Z,6.90
2022-10-05T09:52:06.531Z,7.70
2022-10-05T09:56:00.516Z,5.40
2022-10-05T09:59:53.442Z,9.10
2022-10-05T10:04:01.420Z,6.90
2022-10-05T10:08:04.799Z,6.60
2022-10-05T10:12:11.169Z,5.30
2022-10-05T10:15:16.006Z,5.90
2022-10-05T10:19:21.306Z,9.40
2022-10-05T10:22:45.642Z,6.10
2022-10-05T10:27:13.521Z,6.50
2022-10-05T10:30:33.180Z,6.50
2022-10-05T10:34:20.429Z,7.10
2022-10-05T10:37:34.790Z,7.80
2022-10-05T10:41:50.276Z,5.50
2022-10-05T10:45:57.939Z,5.90
2022-10-05T10:50:19.673Z,6.30
2022-10-05T10:54:09.403Z,6.30
2022-10-05T10:57:57.962Z,6.60
2022-10-05T11:01:50.347Z,5.00
2022-10-05T11:06:35.652Z,6.40
2022-10-05T11:10:30.015Z,7.00
2022-10-05T11:14:25.510Z,6.80
2022-10-05T11:18:14.068Z,7.70
2022-10-05T11:22:31.302Z,6.60
2022-10-05T11:26:33.680Z,5.00
2022-10-05T11:30:51.479Z,7.80
2022-10-05T11:34:37.933Z,8.60
2022-10-05T11:39:02.525Z,6.30
2022-10-05T11:43:11.778Z,5.70
2022-10-05T11:46:46.559Z,7.10
2022-10-05T11:50:31.077Z,5.40
2022-10-05T11:53:30.176Z,6.10
2022-10-05T11:57:43.115Z,5.80
2022-10-05T12:01:16.712Z,5.40
2022-10-05T12:04:54.415Z,4.70
2022-10-05T12:07:38.670Z,4.20
2022-10-05T12:11:05.923Z,7.80
2022-10-05T12:14:11.002Z,6.50
2022-10-05T12:16:59.312Z,8.00
2022-10-05T12:19:48.308Z,5.20
2022-10-05T12:23:03.653Z,3.70
2022-10-05T12:25:41.449Z,6.30
2022-10-05T12:28:18.156Z,7.50
2022-10-05T12:30:58.206Z,5.60
2022-10-05T12:34:01.986Z,8.50
2022-10-05T12:37:03.169Z,6.70
2022-10-05T12:40:37.659Z,8.00
2022-10-05T12:43:51.913Z,5.30
2022-10-05T12:47:33.001Z,4.60
2022-10-05T12:50:53.596Z,4.60
2022-10-05T12:54:19.933Z,6.10
2022-10-05T12:57:28.861Z,4.70
2022-10-05T13:00:47.783Z,6.20
2022-10-05T13:03:52.352Z,6.70
2022-10-05T13:06:42.746Z,6.60
2022-10-05T13:09:50.547Z,6.80
2022-10-05T13:13:07.267Z,6.20
2022-10-05T13:16:21.845Z,6.50
2022-10-05T13:19:58.402Z,6.80
2022-10-05T13:23:19.716Z,6.00
2022-10-05T13:26:50.049Z,6.60
2022-10-05T13:30:12.646Z,6.30
2022-10-05T13:33:59.515Z,5.90
2022-10-05T13:37:45.104Z,7.60
2022-10-05T13:41:51.214Z,7.90
2022-10-05T13:45:39.278Z,5.70
2022-10-05T13:50:04.463Z,6.10
2022-10-05T13:54:02.523Z,5.40
2022-10-05T13:58:07.255Z,5.70
2022-10-05T14:02:30.170Z,6.00
2022-10-05T14:06:41.161Z,6.50
2022-10-05T14:09:37.331Z,5.90
2022-10-05T14:13:33.158Z,6.60
2022-10-05T14:17:11.272Z,11.20
2022-10-05T14:20:03.066Z,7.60
2022-10-05T14:23:36.506Z,6.30
2022-10-05T14:26:18.499Z,7.20
2022-10-05T14:29:48.948Z,7.40
2022-10-05T14:33:37.184Z,7.20
2022-10-05T14:37:15.811Z,9.50
2022-10-05T14:41:16.259Z,4.80
2022-10-05T14:45:33.430Z,8.70
2022-10-05T14:49:22.536Z,7.70
2022-10-05T14:53:44.078Z,6.30
2022-10-05T15:01:46.937Z,6.80
2022-10-05T15:06:03.406Z,7.00
2022-10-05T15:14:27.032Z,5.70
2022-10-05T15:18:46.700Z,8.00
2022-10-05T15:23:12.432Z,6.30
2022-10-05T15:27:42.052Z,7.80
2022-10-05T15:31:56.308Z,6.30
2022-10-05T15:36:10.367Z,9.30
2022-10-05T15:40:33.911Z,6.60
2022-10-05T15:44:46.153Z,7.50
2022-10-05T15:49:05.127Z,8.60
2022-10-05T15:53:13.875Z,7.20
2022-10-05T15:57:27.710Z,10.80
2022-10-05T16:01:15.499Z,9.40
2022-10-05T16:05:21.108Z,9.60
2022-10-05T16:09:27.893Z,9.60
2022-10-05T16:13:45.813Z,8.50
2022-10-05T16:18:09.110Z,8.80
2022-10-05T16:22:26.285Z,11.60
2022-10-05T16:26:24.324Z,8.50
2022-10-05T16:30:42.211Z,10.70
2022-10-05T16:35:05.332Z,9.70
2022-10-05T16:39:32.598Z,10.30
2022-10-05T16:44:04.779Z,8.00
2022-10-05T16:48:23.837Z,10.50
2022-10-05T16:51:41.485Z,10.50
2022-10-05T16:54:20.513Z,10.40
2022-10-05T16:57:06.402Z,11.40
2022-10-05T17:00:03.964Z,13.40
2022-10-05T17:02:56.989Z,14.00
2022-10-05T17:05:45.983Z,13.20
2022-10-05T17:08:38.531Z,13.90
2022-10-05T17:11:33.323Z,14.00
2022-10-05T17:15:17.787Z,13.70
2022-10-05T17:18:49.859Z,12.30
2022-10-05T17:22:02.371Z,13.90
2022-10-05T17:25:11.915Z,15.50
2022-10-05T17:27:57.336Z,15.20
2022-10-05T17:30:27.626Z,13.70
2022-10-05T17:33:04.784Z,14.00
2022-10-05T17:36:20.177Z,15.80
2022-10-05T17:39:19.380Z,13.90
2022-10-05T17:41:47.151Z,14.60
2022-10-05T17:44:16.854Z,13.80
2022-10-05T17:46:48.511Z,18.00
2022-10-05T17:49:47.299Z,17.50
2022-10-05T17:52:46.500Z,17.30
2022-10-05T17:55:43.317Z,14.50
2022-10-05T17:58:29.018Z,17.30
2022-10-05T18:00:59.148Z,14.90
2022-10-05T18:03:50.466Z,14.70
2022-10-05T18:06:32.092Z,14.20
2022-10-05T18:09:17.055Z,14.60
2022-10-05T18:12:02.812Z,13.10
2022-10-05T18:15:07.850Z,15.70
2022-10-05T18:17:51.291Z,14.40
2022-10-05T18:20:24.468Z,15.30
2022-10-05T18:22:55.917Z,13.10
2022-10-05T18:25:45.292Z,11.90
2022-10-05T18:29:40.431Z,13.80
2022-10-05T18:32:30.077Z,17.60
2022-10-05T18:35:25.592Z,14.10
2022-10-05T18:38:04.516Z,13.30
2022-10-05T18:40:51.019Z,10.50
2022-10-05T18:43:56.569Z,16.40
2022-10-05T18:46:38.913Z,14.40
2022-10-05T18:49:18.004Z,15.20
2022-10-05T18:52:12.700Z,16.70
2022-10-05T18:55:15.589Z,15.10
2022-10-05T18:57:57.904Z,15.20
2022-10-05T19:00:34.158Z,14.20
2022-10-05T19:03:20.155Z,12.50
2022-10-05T19:06:27.952Z,11.90
2022-10-05T19:09:40.971Z,15.30
2022-10-05T19:13:14.375Z,15.00
2022-10-05T19:16:22.638Z,15.10
2022-10-05T19:19:33.465Z,17.20
2022-10-05T19:22:18.839Z,21.40
2022-10-05T19:25:28.792Z,20.70
2022-10-05T19:28:33.401Z,25.10
2022-10-05T19:31:12.295Z,23.30
2022-10-05T19:34:09.177Z,20.00
2022-10-05T19:37:25.494Z,21.70
2022-10-05T19:40:09.736Z,20.40
2022-10-05T19:43:07.208Z,31.80
2022-10-05T19:46:19.229Z,22.50
2022-10-05T19:48:52.911Z,18.60
2022-10-05T19:51:30.662Z,17.00
2022-10-05T19:54:12.396Z,20.00
2022-10-05T19:56:53.533Z,17.60
2022-10-05T19:59:26.697Z,16.70
2022-10-05T20:01:57.335Z,20.30
2022-10-05T20:04:55.268Z,20.20
2022-10-05T20:07:23.445Z,18.90
2022-10-05T20:10:00.421Z,19.40
2022-10-05T20:12:56.699Z,21.30
2022-10-05T20:15:47.075Z,19.30
2022-10-05T20:18:58.948Z,20.80
2022-10-05T20:21:45.565Z,19.10
2022-10-05T20:24:15.885Z,19.60
2022-10-05T20:27:05.729Z,19.70
2022-10-05T20:29:44.892Z,14.90
2022-10-05T20:32:20.642Z,20.70
2022-10-05T20:34:49.529Z,23.40
2022-10-05T20:37:20.266Z,17.00
2022-10-05T20:39:51.609Z,23.70
2022-10-05T20:42:20.565Z,17.70
2022-10-05T20:44:51.791Z,17.70
2022-10-05T20:47:23.301Z,16.90
2022-10-05T20:49:50.343Z,20.10
2022-10-05T20:52:17.344Z,14.90
2022-10-05T20:57:16.403Z,22.20
2022-10-05T21:00:24.224Z,14.90
2022-10-05T21:03:19.820Z,16.20
2022-10-05T21:06:30.080Z,14.90
2022-10-05T21:09:40.987Z,15.70
2022-10-05T21:12:58.895Z,16.20
2022-10-05T21:16:54.519Z,16.60
2022-10-05T21:20:49.120Z,14.50
2022-10-05T21:24:37.039Z,16.40
2022-10-05T21:28:28.438Z,17.90
2022-10-05T21:49:06.806Z,14.50
2022-10-05T21:53:15.344Z,14.80
2022-10-05T21:57:24.895Z,12.90
2022-10-05T22:17:20.893Z,10.70
2022-10-05T22:21:24.340Z,12.80
2022-10-05T22:36:37.852Z,11.40
2022-10-05T22:40:26.409Z,13.30
2022-10-05T22:44:27.461Z,11.60
2022-10-05T22:48:00.864Z,13.10
2022-10-05T22:51:55.769Z,13.10
2022-10-05T22:56:04.042Z,15.60
2022-10-05T23:00:06.169Z,13.40
2022-10-05T23:16:31.112Z,20.40
2022-10-05T23:20:39.581Z,19.20
2022-10-05T23:41:20.524Z,22.40
2022-10-05T23:45:29.099Z,23.00
